METAR Data
IDs: Format: Raw Decoded Include TAF

Data at: 2103 UTC 08 Aug 2020

KAZC 082055Z AUTO 27006G17KT 10SM CLR 35/M02 A3018 RMK AO2
KAZC 082035Z AUTO 25004KT 10SM CLR 35/M02 A3018 RMK AO2
KAZC 082015Z AUTO 17005G19KT 10SM CLR 35/M02 A3019 RMK AO2
KAZC 081955Z AUTO 24013G19KT 10SM CLR 35/M03 A3020 RMK AO2
KAZC 081935Z AUTO 22007KT 10SM CLR 35/M03 A3020 RMK AO2
KAZC 081915Z AUTO 23007G15KT 10SM CLR 34/M03 A3021 RMK AO2
KAZC 081855Z AUTO 22006KT 10SM CLR 33/M03 A3022 RMK AO2
KAZC 081835Z AUTO 24010G14KT 10SM CLR 33/M03 A3022 RMK AO2
KAZC 081815Z AUTO 23012G19KT 10SM CLR 33/M04 A3023 RMK AO2
KAZC 081755Z AUTO 19014G19KT 10SM CLR 33/M03 A3023 RMK AO2
KAZC 081735Z AUTO 24009KT 190V280 10SM CLR 32/M03 A3024 RMK AO2
KAZC 081715Z AUTO 11003KT 10SM CLR 32/M05 A3024 RMK AO2
KAZC 081655Z AUTO 13008KT 090V160 10SM CLR 31/M03 A3024 RMK AO2
KAZC 081635Z AUTO 12007KT 10SM CLR 31/M03 A3024 RMK AO2
KAZC 081615Z AUTO 12006KT 10SM CLR 31/M03 A3024 RMK AO2
KAZC 081555Z AUTO 00000KT 10SM CLR 28/M03 A3024 RMK AO2
KAZC 081535Z AUTO 00000KT 10SM CLR 26/M02 A3024 RMK AO2
KAZC 081515Z AUTO 00000KT 10SM CLR 25/M03 A3024 RMK AO2
KAZC 081455Z AUTO 09003KT 10SM CLR 23/M02 A3024 RMK AO2
KAZC 081435Z AUTO 11003KT 10SM CLR 22/M01 A3024 RMK AO2
KAZC 081415Z AUTO 11007KT 10SM CLR 19/M03 A3023 RMK AO2
KAZC 081355Z AUTO 13003KT 10SM CLR 16/M03 A3023 RMK AO2
KAZC 081335Z AUTO 14005KT 10SM CLR 13/M03 A3022 RMK AO2
KAZC 081315Z AUTO 15005KT 10SM CLR 11/M05 A3021 RMK AO2
KAZC 081255Z AUTO 13005KT 10SM CLR 11/M05 A3021 RMK AO2
KAZC 081235Z AUTO 14005KT 10SM CLR 10/M05 A3021 RMK AO2
KAZC 081215Z AUTO 14006KT 10SM CLR 11/M05 A3020 RMK AO2
KAZC 081155Z AUTO 14007KT 10SM CLR 10/M05 A3020 RMK AO2
KAZC 081135Z AUTO 15007KT 10SM CLR 11/M05 A3019 RMK AO2
KAZC 081115Z AUTO 16004KT 10SM CLR 10/M05 A3019 RMK AO2
KAZC 081055Z AUTO 15004KT 10SM CLR 10/M05 A3019 RMK AO2
KAZC 081035Z AUTO 11004KT CLR 12/M04 A3019 RMK AO2 PWINO
KAZC 081015Z AUTO 10007KT CLR 10/M03 A3019 RMK AO2 PWINO
KAZC 080955Z AUTO 16004KT CLR 12/M05 A3019 RMK AO2 PWINO
KAZC 080935Z AUTO 16003KT CLR 12/M05 A3018 RMK AO2 PWINO
KAZC 080915Z AUTO 17003KT 10SM CLR 12/M05 A3018 RMK AO2 PWINO
KAZC 080855Z AUTO 16003KT CLR 12/M05 A3018 RMK AO2 PWINO
KAZC 080835Z AUTO 16004KT CLR 12/M05 A3018 RMK AO2 PWINO
KAZC 080815Z AUTO 00000KT 10SM CLR 13/M05 A3018 RMK AO2
KAZC 080755Z AUTO 13003KT 10SM CLR 13/M05 A3018 RMK AO2
KAZC 080735Z AUTO 15003KT 10SM CLR 13/M04 A3018 RMK AO2
KAZC 080715Z AUTO 14005KT 10SM CLR 12/M05 A3018 RMK AO2
KAZC 080655Z AUTO 14004KT 10SM CLR 13/M05 A3018 RMK AO2
KAZC 080635Z AUTO 13006KT CLR 13/M05 A3017 RMK AO2 PWINO
KAZC 080615Z AUTO 11006KT 10SM CLR 13/M03 A3017 RMK AO2 PWINO
KAZC 080555Z AUTO 10010KT CLR 13/M03 A3016 RMK AO2 PWINO
KAZC 080535Z AUTO 13004KT CLR 15/M05 A3016 RMK AO2 PWINO
KAZC 080515Z AUTO 11004KT 10SM CLR 16/M02 A3015 RMK AO2
KAZC 080455Z AUTO 00000KT CLR 20/M02 A3015 RMK AO2 PWINO
KAZC 080435Z AUTO 00000KT CLR 17/M03 A3014 RMK AO2 PWINO
KAZC 080415Z AUTO 00000KT CLR 20/M05 A3013 RMK AO2 PWINO
KAZC 080355Z AUTO 00000KT 10SM CLR 23/M05 A3012 RMK AO2
KAZC 080335Z AUTO 34004KT CLR 26/M03 A3011 RMK AO2 PWINO
KAZC 080315Z AUTO 34006KT CLR 27/M03 A3011 RMK AO2 PWINO
KAZC 080255Z AUTO 33004KT 10SM CLR 28/M04 A3009 RMK AO2
KAZC 080235Z AUTO 29006KT 10SM CLR 29/M04 A3009 RMK AO2
KAZC 080215Z AUTO 29006KT 10SM CLR 31/M03 A3009 RMK AO2
KAZC 080155Z AUTO 29006KT 10SM CLR 32/M03 A3008 RMK AO2
KAZC 080135Z AUTO 28010KT 10SM CLR 33/M03 A3008 RMK AO2
KAZC 080115Z AUTO 28010KT 10SM CLR 34/M03 A3008 RMK AO2
KAZC 080055Z AUTO 21008KT 180V250 10SM CLR 35/M05 A3007 RMK AO2
KAZC 080035Z AUTO 28011KT 10SM CLR 35/M03 A3007 RMK AO2
KAZC 080015Z AUTO 14004KT 10SM CLR 35/M05 A3007 RMK AO2
KAZC 072355Z AUTO 17006G15KT 10SM CLR 36/M05 A3007 RMK AO2
KAZC 072335Z AUTO 22013G18KT 10SM CLR 36/M04 A3007 RMK AO2
KAZC 072315Z AUTO 19010G16KT 10SM CLR 36/M05 A3008 RMK AO2
KAZC 072255Z AUTO 21008G18KT 10SM CLR 36/M04 A3008 RMK AO2
KAZC 072235Z AUTO 25011G18KT 10SM CLR 36/M05 A3008 RMK AO2
KAZC 072215Z AUTO 20015G19KT 10SM CLR 36/M04 A3009 RMK AO2
KAZC 072155Z AUTO 22010G21KT 200V260 10SM CLR 36/M05 A3010 RMK AO2
KAZC 072135Z AUTO 18009G18KT 10SM CLR 36/M05 A3010 RMK AO2
KAZC 072115Z AUTO 21012G25KT 10SM CLR 36/M05 A3011 RMK AO2
KAZC 072055Z AUTO 19008G20KT 10SM CLR 36/M05 A3011 RMK AO2
KAZC 072035Z AUTO 17014G20KT 10SM CLR 35/M04 A3011 RMK AO2
KAZC 072015Z AUTO 22007G19KT 10SM CLR 35/M03 A3012 RMK AO2
KAZC 071955Z AUTO 22009G15KT 10SM CLR 35/M03 A3012 RMK AO2
KAZC 071935Z AUTO 20012G19KT 10SM CLR 35/M03 A3013 RMK AO2
KAZC 071915Z AUTO 22010G20KT 10SM CLR 34/M03 A3013 RMK AO2
KAZC 071855Z AUTO 19009KT 10SM CLR 33/M01 A3013 RMK AO2
KAZC 071835Z AUTO 33006KT 10SM CLR 32/M01 A3013 RMK AO2
KAZC 071815Z AUTO 09010KT 10SM CLR 33/00 A3015 RMK AO2
KAZC 071755Z AUTO 12007KT 10SM CLR 32/M01 A3015 RMK AO2
KAZC 071735Z AUTO 11006G15KT 10SM CLR 32/00 A3015 RMK AO2
KAZC 071715Z AUTO 10006KT 10SM CLR 31/M01 A3016 RMK AO2
KAZC 071655Z AUTO 15004G15KT 10SM CLR 31/00 A3015 RMK AO2
KAZC 071635Z AUTO 13005KT 10SM CLR 31/M01 A3015 RMK AO2
KAZC 071615Z AUTO 16006KT 10SM CLR 30/M02 A3015 RMK AO2
KAZC 071555Z AUTO 15003KT 10SM CLR 29/M03 A3015 RMK AO2
KAZC 071535Z AUTO 13006KT 10SM CLR 27/M02 A3015 RMK AO2
KAZC 071515Z AUTO 00000KT 10SM CLR 24/M02 A3015 RMK AO2
KAZC 071455Z AUTO 00000KT 10SM CLR 22/M01 A3015 RMK AO2
KAZC 071435Z AUTO 00000KT 10SM CLR 20/M03 A3014 RMK AO2
KAZC 071415Z AUTO 10003KT 10SM CLR 18/M03 A3013 RMK AO2
KAZC 071355Z AUTO 00000KT 10SM CLR 16/M04 A3013 RMK AO2
KAZC 071335Z AUTO 00000KT 10SM CLR 13/M04 A3013 RMK AO2
KAZC 071315Z AUTO 00000KT 10SM CLR 10/M05 A3012 RMK AO2
KAZC 071255Z AUTO 00000KT 10SM CLR 08/M06 A3012 RMK AO2
KAZC 071235Z AUTO 00000KT 10SM CLR 09/M06 A3011 RMK AO2
KAZC 071215Z AUTO 00000KT CLR 09/M06 A3011 RMK AO2 PWINO
KAZC 071155Z AUTO 13006KT 360V160 CLR 10/M06 A3010 RMK AO2 PWINO
KAZC 071135Z AUTO CLR 11/M05 A3010 RMK AO2 PWINO
KAZC 071115Z AUTO 14004KT CLR 10/M05 A3010 RMK AO2 PWINO
KAZC 071055Z AUTO 12010KT CLR 08/M03 A3010 RMK AO2 PWINO
KAZC 071035Z AUTO 00000KT CLR 09/M03 A3010 RMK AO2 PWINO
KAZC 071015Z AUTO 00000KT CLR 11/M04 A3009 RMK AO2 PWINO
KAZC 070955Z AUTO 15003KT CLR 11/M05 A3008 RMK AO2 PWINO
KAZC 070935Z AUTO 16003KT CLR 10/M04 A3008 RMK AO2 PWINO
KAZC 070915Z AUTO 13004KT CLR 09/M05 A3008 RMK AO2 PWINO